Scott AFB,Midamerica Airport Belleville US
ICAO: KBLV
IATA: BLV
Category: Large
Scheduled Services: No

Elevation: 459 ft
TransAlt. 18000 ft.

Airport Communications:
ST LOUIS APP/DEP:125.2
126 ARW COMD POST:138.55
ATIS:128.7
CLNC DEL:121.75
GND:119.2
PMSV METRO:23.98
375 AW COMD POST:130.65
PTD:139.85
TWR:118.65
UNICOM:122.95

KBLV Zoom In..

If you have problems with the map follow the link
https://www.worldairports.se/pages/airport.php?
ICAO=KBLV

Runways:

(A) RW 14L length 10000 ft width 150 ft
ILS 111.15 / hdg 135

(B) RW 14R length 8010 ft width 150 ft
ILS 109.90 / hdg 135

(C) RW 32L length 8010 ft width 150 ft
ILS 109.90 / hdg 315

(D) RW 32R length 10000 ft width 150 ft
ILS 111.15 / hdg 315

Location; KBLV
Day. 20 / Time. 10.06 Zulu
* Altimeter: 30.57
* Temperature: -09° c. -15.8°f.
* Wind from: 360° Speed 05 kn.
Dewpoint: -13° c.
Visibility: 10 Statute Miles.
Clouds: Overcast 1400 ft.
Conditions: Light Snow.

KBLV 201006Z AUTO 36005KT 10SM -SN OVC014 M09/M13 A3057 RMK AO2 SNB06 CIG 013 RWY32L SLP363 $


Wind From 360°
Speed 05 kn.

 
 
jpsmedia worldairports.se 2020   terms of use